aviador You're here:

PAKF Decoded Metar

FALSE PASS in AK, US
Report Time2017-09-24 11:01:00
UTC Time2017-09-24 12:00:01
Flight Rules vfr VFR
Wind290° at 07 kt
W.Decomp.*RWY 32: 4.9 kt HW 5 kt LCW
W.Rank290° ranks 3
Current wind is below 290° avg. (13.4)
Visibility9999 m
Phenomena:N/A
Clouds:Broken 033 Hf
Expected CloudBase > 2,000 ft AGL from Temp-Dew spread
Ceiling3,300 ft
Temp07°C (ISA -8)
Dew Point02°C (71% RH)
AAT2.8°C
QNH1005 hPa
Density Alt-571 ft
Elevation19 ft
Report Wrong Elevation
Raw Report
PAKF 241101Z AUTO 29007KT 10SM BKN033 07/02 A2969 RMK AO2 PK WND
26028/1023 RAB1013E1046 SLP150 P0000 T00670022 $=

Extra information for PAKF:More info

Metar Taf Metar & Taf Last 4 Metars F.Rules Stats Wind Profile Meteogram Temp Stats Airport Information Weather charts Add Link Nearby VenuesMetar ALERT Operation Metar Decoded Social comments